Time;durP1;ratioP1;P1;durP2;ratioP2;P2;SDS_P1;SDS_P2;PMS_P1;PMS_P2;Temp;Humidity;BMP_temperature;BMP_pressure;BME280_temperature;BME280_humidity;BME280_pressure;Samples;Min_cycle;Max_cycle;Signal;HPM_P1;HPM_P2
2023/01/07 00:01:28;;;;;;;59.60;44.67;;;;;;;0.04;99.52;100502.88;1727707;83;26037;-45
2023/01/07 00:03:57;;;;;;;44.65;23.05;;;;;;;0.04;99.49;100506.34;1716433;83;25606;-48
2023/01/07 00:06:27;;;;;;;50.73;22.73;;;;;;;0.05;99.53;100508.47;1728724;82;27311;-44
2023/01/07 00:08:56;;;;;;;46.18;25.97;;;;;;;0.06;99.48;100517.55;1728335;83;25601;-45
2023/01/07 00:11:27;;;;;;;32.88;15.68;;;;;;;0.07;99.51;100517.02;1723526;81;25635;-45
2023/01/07 00:13:55;;;;;;;48.33;23.98;;;;;;;0.08;99.54;100526.62;1735940;82;26264;-45
2023/01/07 00:16:26;;;;;;;58.30;28.40;;;;;;;0.10;99.56;100525.87;1756743;81;25540;-45
2023/01/07 00:18:54;;;;;;;43.78;21.75;;;;;;;0.11;99.49;100523.50;1759424;81;27332;-46
2023/01/07 00:21:23;;;;;;;47.45;25.40;;;;;;;0.11;99.49;100526.97;1759406;81;25476;-45
2023/01/07 00:23:55;;;;;;;45.92;24.80;;;;;;;0.13;99.48;100533.38;1731554;81;25588;-45
2023/01/07 00:26:24;;;;;;;55.75;34.95;;;;;;;0.13;99.54;100538.70;1759453;81;25724;-45
2023/01/07 00:28:52;;;;;;;58.40;40.73;;;;;;;0.16;99.59;100546.23;1731719;81;25599;-43
2023/01/07 00:31:26;;;;;;;60.00;41.53;;;;;;;0.18;99.57;100551.59;1736070;82;27330;-44
2023/01/07 00:36:24;;;;;;;48.42;29.05;;;;;;;0.22;99.64;100555.11;1759471;81;25572;-45
2023/01/07 00:38:55;;;;;;;46.45;26.10;;;;;;;0.24;99.67;100553.85;1759405;81;25697;-45
2023/01/07 00:41:22;;;;;;;56.37;27.67;;;;;;;0.25;99.63;100556.78;1759510;81;25602;-43
2023/01/07 00:43:48;;;;;;;47.23;24.18;;;;;;;0.27;99.52;100569.86;1759453;81;27309;-44
2023/01/07 00:46:15;;;;;;;49.93;24.55;;;;;;;0.27;99.42;100578.64;1759414;81;25625;-45
2023/01/07 00:48:43;;;;;;;49.00;21.97;;;;;;;0.28;99.48;100583.46;1736065;82;25661;-45
2023/01/07 00:51:12;;;;;;;59.03;27.83;;;;;;;0.29;99.51;100588.55;1759647;81;25666;-44
2023/01/07 00:53:39;;;;;;;37.63;19.17;;;;;;;0.29;99.55;100584.56;1759619;81;25643;-45
2023/01/07 00:56:07;;;;;;;50.80;24.23;;;;;;;0.32;99.58;100584.10;1731481;81;27167;-45
2023/01/07 00:58:34;;;;;;;56.75;33.70;;;;;;;0.34;99.57;100582.51;1731289;81;25649;-45
2023/01/07 01:01:02;;;;;;;63.20;45.55;;;;;;;0.33;99.39;100584.38;1759428;81;25539;-44
2023/01/07 01:03:31;;;;;;;64.77;50.92;;;;;;;0.34;99.37;100578.02;1759413;81;25619;-45
2023/01/07 01:06:04;;;;;;;58.38;43.75;;;;;;;0.35;99.36;100575.63;1759624;81;25577;-47
2023/01/07 01:08:30;;;;;;;66.80;54.98;;;;;;;0.35;99.25;100581.48;1736051;82;27337;-45
2023/01/07 01:11:06;;;;;;;78.25;70.12;;;;;;;0.35;99.12;100581.48;1759371;81;25648;-44
2023/01/07 01:13:33;;;;;;;80.85;68.92;;;;;;;0.35;98.93;100584.94;1759521;81;25582;-44
2023/01/07 01:16:00;;;;;;;56.75;37.33;;;;;;;0.33;98.91;100579.05;1759414;81;25623;-44
2023/01/07 01:18:26;;;;;;;70.80;55.63;;;;;;;0.32;98.92;100577.45;1759431;81;25442;-43
2023/01/07 01:20:53;;;;;;;58.38;43.48;;;;;;;0.32;98.93;100577.45;1759481;81;27408;-44
2023/01/07 01:23:20;;;;;;;48.30;25.77;;;;;;;0.31;98.94;100575.81;1731273;81;25602;-46
2023/01/07 01:25:46;;;;;;;54.98;43.25;;;;;;;0.29;98.88;100575.25;1759419;81;25644;-46
2023/01/07 01:28:13;;;;;;;72.42;64.55;;;;;;;0.28;98.86;100576.28;1759413;81;25637;-47
2023/01/07 01:30:39;;;;;;;75.25;67.65;;;;;;;0.29;98.94;100585.89;1759489;81;25407;-44
2023/01/07 01:33:05;;;;;;;47.75;23.65;;;;;;;0.30;99.04;100578.18;1759466;81;28108;-45
2023/01/07 01:35:31;;;;;;;43.67;19.67;;;;;;;0.31;99.10;100572.36;1759297;81;31184;-44
2023/01/07 01:38:00;;;;;;;47.70;19.67;;;;;;;0.31;99.12;100593.12;1759435;81;26181;-43
2023/01/07 01:40:29;;;;;;;39.88;20.72;;;;;;;0.33;99.12;100592.88;1759558;81;25694;-43
2023/01/07 01:42:56;;;;;;;65.97;50.17;;;;;;;0.31;99.13;100594.45;1736047;82;25599;-43
2023/01/07 01:45:24;;;;;;;66.67;58.25;;;;;;;0.32;99.04;100600.06;1759432;81;27335;-44
2023/01/07 01:47:56;;;;;;;74.35;66.12;;;;;;;0.32;99.09;100588.09;1759442;81;25564;-44
2023/01/07 01:50:39;;;;;;;59.93;36.53;;;;;;;0.32;99.20;100592.08;1759500;81;25582;-44
2023/01/07 01:53:10;;;;;;;66.97;57.43;;;;;;;0.34;99.31;100587.83;1758195;81;25625;-44
2023/01/07 01:55:44;;;;;;;68.10;56.92;;;;;;;0.35;99.33;100598.24;1759514;81;25639;-44
2023/01/07 01:58:15;;;;;;;50.50;41.85;;;;;;;0.36;99.30;100605.73;1759415;81;27353;-45
2023/01/07 02:00:42;;;;;;;56.00;41.05;;;;;;;0.36;99.25;100610.52;1759381;81;25720;-44
2023/01/07 02:03:16;;;;;;;50.17;35.13;;;;;;;0.38;99.26;100610.82;1759421;81;25419;-46
2023/01/07 02:05:45;;;;;;;63.70;57.33;;;;;;;0.38;99.30;100606.30;1759429;81;25657;-46
2023/01/07 02:08:13;;;;;;;78.60;70.37;;;;;;;0.39;99.29;100599.11;1759583;81;25405;-45
2023/01/07 02:10:40;;;;;;;48.28;43.17;;;;;;;0.40;99.29;100600.75;1759521;81;27996;-44
2023/01/07 02:13:19;;;;;;;73.17;65.78;;;;;;;0.43;99.31;100618.91;1705795;83;25644;-47
2023/01/07 02:16:14;;;;;;;59.35;53.48;;;;;;;0.41;99.32;100607.67;1718471;83;25591;-45
2023/01/07 02:19:07;;;;;;;81.53;73.78;;;;;;;0.41;99.27;100607.67;1694060;83;25865;-44
2023/01/07 02:21:53;;;;;;;76.07;66.07;;;;;;;0.42;99.17;100598.66;1630766;87;25684;-44
2023/01/07 02:25:00;;;;;;;82.00;73.78;;;;;;;0.42;99.09;100598.66;1615601;88;27391;-47
2023/01/07 02:27:38;;;;;;;67.65;59.80;;;;;;;0.40;99.08;100593.56;1626030;88;25611;-44
2023/01/07 02:30:39;;;;;;;57.13;44.20;;;;;;;0.40;99.08;100597.55;1580586;90;25458;-44
2023/01/07 02:33:28;;;;;;;51.70;39.35;;;;;;;0.39;99.04;100591.93;1581188;90;26265;-44
2023/01/07 02:36:32;;;;;;;56.98;35.78;;;;;;;0.38;99.00;100587.67;1581191;90;25473;-45
2023/01/07 02:39:23;;;;;;;46.02;23.83;;;;;;;0.35;99.08;100586.27;1581211;90;28206;-44
2023/01/07 02:42:23;;;;;;;55.45;22.00;;;;;;;0.33;99.00;100592.88;1580314;90;26267;-45
2023/01/07 02:45:12;;;;;;;64.47;26.65;;;;;;;0.34;99.16;100596.64;1580994;90;25506;-47
2023/01/07 02:47:53;;;;;;;48.63;22.20;;;;;;;0.29;99.21;100597.86;1580965;90;26597;-46
2023/01/07 02:50:20;;;;;;;53.10;21.27;;;;;;;0.29;99.41;100590.38;1580492;90;25732;-46
2023/01/07 02:52:46;;;;;;;53.08;21.10;;;;;;;0.28;99.41;100598.90;1581109;90;29463;-45
2023/01/07 02:55:18;;;;;;;49.88;21.20;;;;;;;0.29;99.60;100595.20;1581031;90;25914;-44
2023/01/07 02:58:27;;;;;;;51.88;21.23;;;;;;;0.29;99.79;100594.38;1582133;86;25515;-44
2023/01/07 03:01:16;;;;;;;49.27;20.08;;;;;;;0.33;99.88;100606.19;1653362;86;27769;-45
2023/01/07 03:03:51;;;;;;;49.55;20.08;;;;;;;0.34;99.97;100600.64;1652230;86;25753;-44
2023/01/07 03:06:38;;;;;;;48.25;20.40;;;;;;;0.37;99.86;100604.67;1652337;86;27314;-45
2023/01/07 03:09:29;;;;;;;57.98;21.10;;;;;;;0.37;99.82;100606.00;1692760;83;25663;-46
2023/01/07 03:12:23;;;;;;;44.08;19.30;;;;;;;0.38;99.84;100608.16;1718736;82;25776;-46
2023/01/07 03:15:28;;;;;;;45.38;20.88;;;;;;;0.38;99.78;100598.31;1703218;84;25715;-47
2023/01/07 03:18:05;;;;;;;55.45;24.05;;;;;;;0.37;99.55;100586.04;1703276;84;25620;-44
2023/01/07 03:20:36;;;;;;;59.38;22.48;;;;;;;0.33;99.34;100576.39;1723456;83;27595;-45
2023/01/07 03:23:07;;;;;;;58.70;20.90;;;;;;;0.31;99.93;100573.16;1720824;83;25621;-45
2023/01/07 03:25:39;;;;;;;48.85;21.02;;;;;;;0.29;100.00;100583.73;1720889;83;25603;-44
2023/01/07 03:28:08;;;;;;;51.33;21.70;;;;;;;0.27;100.00;100585.83;1703359;84;25597;-46
2023/01/07 03:30:37;;;;;;;50.35;22.48;;;;;;;0.28;100.00;100588.25;1703528;84;25573;-44
2023/01/07 03:33:26;;;;;;;48.03;20.73;;;;;;;0.28;100.00;100592.25;1723728;83;27337;-44
2023/01/07 03:35:54;;;;;;;;;;;;;;;0.28;100.00;100584.27;1723337;83;25619;-43
2023/01/07 03:38:23;;;;;;;46.08;18.80;;;;;;;0.28;100.00;100592.25;1718856;83;25396;-43
2023/01/07 03:40:51;;;;;;;39.27;14.93;;;;;;;0.29;100.00;100587.72;1700560;84;26588;-44
2023/01/07 03:43:20;;;;;;;49.13;20.92;;;;;;;0.30;100.00;100592.02;1700541;84;25641;-44
2023/01/07 03:45:48;;;;;;;48.65;21.93;;;;;;;0.30;100.00;100596.80;1674617;84;27991;-46
2023/01/07 03:48:14;;;;;;;58.30;21.48;;;;;;;0.30;100.00;100598.14;1700422;84;25720;-46
2023/01/07 03:50:40;;;;;;;53.48;20.50;;;;;;;0.33;100.00;100598.20;1674662;84;25635;-45
2023/01/07 03:53:07;;;;;;;50.45;21.82;;;;;;;0.33;100.00;100593.69;1700777;84;25561;-44
2023/01/07 03:55:33;;;;;;;69.40;21.45;;;;;;;0.34;100.00;100598.47;1674737;84;25626;-44
2023/01/07 03:57:59;;;;;;;48.02;20.88;;;;;;;0.33;100.00;100598.20;1674690;84;27374;-44
2023/01/07 04:00:26;;;;;;;57.88;20.17;;;;;;;0.31;100.00;100590.45;1700556;84;25521;-43
2023/01/07 04:02:54;;;;;;;53.15;22.10;;;;;;;0.32;100.00;100595.25;1700699;84;25660;-42
2023/01/07 04:05:20;;;;;;;62.27;23.38;;;;;;;0.32;100.00;100593.91;1700624;84;25626;-45
2023/01/07 04:07:46;;;;;;;59.10;20.85;;;;;;;0.33;100.00;100588.36;1700631;84;25628;-45
2023/01/07 04:10:13;;;;;;;51.40;20.45;;;;;;;0.34;100.00;100595.81;1700616;84;27403;-45
2023/01/07 04:12:39;;;;;;;70.37;22.25;;;;;;;0.31;100.00;100590.98;1713554;81;25467;-45
2023/01/07 04:15:07;;;;;;;51.65;21.73;;;;;;;0.31;100.00;100606.42;1754951;81;25472;-45
2023/01/07 04:17:33;;;;;;;60.92;22.80;;;;;;;0.31;100.00;100606.95;1734242;82;25889;-45
2023/01/07 04:19:59;;;;;;;52.08;20.30;;;;;;;0.31;100.00;100609.08;1754891;81;25563;-45
2023/01/07 04:22:26;;;;;;;56.35;22.32;;;;;;;0.34;100.00;100613.11;1754894;81;27367;-45
2023/01/07 04:24:52;;;;;;;56.92;21.87;;;;;;;0.34;100.00;100615.27;1754887;81;27215;-45
2023/01/07 04:27:18;;;;;;;59.35;21.68;;;;;;;0.38;100.00;100624.13;1755016;81;25636;-45
2023/01/07 04:29:44;;;;;;;50.80;21.02;;;;;;;0.41;100.00;100615.66;1734198;82;25595;-45
2023/01/07 04:32:10;;;;;;;61.10;20.82;;;;;;;0.41;100.00;100611.16;1754923;81;25428;-45
2023/01/07 04:34:36;;;;;;;54.95;21.42;;;;;;;0.41;100.00;100614.32;1754913;81;27318;-46
2023/01/07 04:37:03;;;;;;;56.90;20.62;;;;;;;0.41;100.00;100610.33;1754824;81;25693;-45
2023/01/07 04:39:29;;;;;;;55.75;21.17;;;;;;;0.41;100.00;100614.32;1754865;81;25544;-46
2023/01/07 04:41:55;;;;;;;54.10;21.23;;;;;;;0.41;100.00;100619.14;1754987;81;26429;-46
2023/01/07 04:44:22;;;;;;;55.85;20.57;;;;;;;0.43;100.00;100623.70;1755046;81;25596;-45
2023/01/07 04:46:48;;;;;;;58.50;21.35;;;;;;;0.44;100.00;100615.19;1734367;82;27367;-45
2023/01/07 04:49:14;;;;;;;61.02;21.30;;;;;;;0.45;100.00;100611.50;1754887;81;25478;-45
2023/01/07 04:51:40;;;;;;;56.13;21.40;;;;;;;0.46;100.00;100617.09;1754924;81;25467;-45
2023/01/07 04:54:06;;;;;;;55.70;19.87;;;;;;;0.47;100.00;100613.41;1754844;81;25737;-45
2023/01/07 04:56:32;;;;;;;49.70;19.87;;;;;;;0.46;100.00;100615.27;1754936;81;25471;-49
2023/01/07 04:58:59;;;;;;;55.08;21.35;;;;;;;0.46;100.00;100621.92;1754872;81;27203;-45
2023/01/07 05:01:26;;;;;;;51.83;18.85;;;;;;;0.43;100.00;100611.73;1734068;82;25599;-46
2023/01/07 05:03:52;;;;;;;49.20;18.20;;;;;;;0.43;100.00;100612.27;1733766;82;25580;-46
2023/01/07 05:06:19;;;;;;;50.60;19.55;;;;;;;0.41;100.00;100612.49;1754859;81;25714;-44
2023/01/07 05:08:45;;;;;;;57.25;18.40;;;;;;;0.38;100.00;100621.47;1731284;81;25647;-47
2023/01/07 05:11:11;;;;;;;50.78;18.05;;;;;;;0.35;100.00;100626.19;1754889;81;27324;-45
2023/01/07 05:13:37;;;;;;;45.17;17.92;;;;;;;0.36;100.00;100625.69;1755773;81;25741;-45
2023/01/07 05:16:05;;;;;;;53.90;21.27;;;;;;;0.34;100.00;100623.75;1757049;81;25467;-46
2023/01/07 05:18:31;;;;;;;48.68;18.80;;;;;;;0.35;100.00;100624.86;1757009;81;25628;-46
2023/01/07 05:20:57;;;;;;;50.17;17.98;;;;;;;0.34;100.00;100624.59;1757013;81;25541;-46
2023/01/07 05:23:24;;;;;;;54.75;19.35;;;;;;;0.35;100.00;100628.05;1757003;81;27301;-46
2023/01/07 05:25:50;;;;;;;56.30;19.27;;;;;;;0.36;100.00;100629.68;1731140;81;25459;-46
2023/01/07 05:28:16;;;;;;;54.42;17.95;;;;;;;0.35;100.00;100630.71;1757046;81;25419;-46
2023/01/07 05:30:43;;;;;;;47.48;17.92;;;;;;;0.36;100.00;100636.33;1756984;81;27770;-46
2023/01/07 05:33:09;;;;;;;60.60;21.75;;;;;;;0.35;100.00;100644.81;1731318;81;25432;-46
2023/01/07 05:35:36;;;;;;;50.00;19.25;;;;;;;0.36;100.00;100650.44;1757070;81;27409;-46
2023/01/07 05:38:03;;;;;;;45.60;17.62;;;;;;;0.38;100.00;100653.41;1756903;81;25558;-46
2023/01/07 05:40:29;;;;;;;46.08;19.23;;;;;;;0.41;100.00;100652.91;1738916;82;25553;-46
2023/01/07 05:42:56;;;;;;;53.48;18.80;;;;;;;0.42;100.00;100662.53;1738927;82;25623;-46
2023/01/07 05:45:22;;;;;;;51.68;19.52;;;;;;;0.41;100.00;100653.74;1762410;81;25459;-46
2023/01/07 05:47:49;;;;;;;64.32;18.87;;;;;;;0.41;100.00;100659.56;1738702;81;27077;-46
2023/01/07 05:50:16;;;;;;;50.17;19.05;;;;;;;0.40;100.00;100664.09;1762261;81;25420;-46
2023/01/07 05:52:42;;;;;;;53.80;19.50;;;;;;;0.40;100.00;100660.63;1738921;82;25451;-45
2023/01/07 05:55:09;;;;;;;45.23;17.55;;;;;;;0.39;100.00;100663.79;1738848;82;25688;-46
2023/01/07 05:57:35;;;;;;;54.55;18.80;;;;;;;0.40;100.00;100670.74;1762438;81;25483;-47
2023/01/07 06:00:01;;;;;;;46.13;18.92;;;;;;;0.40;100.00;100667.28;1762307;81;27326;-46
2023/01/07 06:02:28;;;;;;;51.23;18.05;;;;;;;0.39;100.00;100670.97;1762319;81;25662;-44
2023/01/07 06:04:54;;;;;;;50.23;17.67;;;;;;;0.39;100.00;100670.44;1738886;82;25461;-46
2023/01/07 06:07:20;;;;;;;46.80;17.95;;;;;;;0.40;100.00;100671.27;1738853;82;25649;-46
2023/01/07 06:09:47;;;;;;;56.80;19.57;;;;;;;0.39;100.00;100668.31;1762368;81;25615;-47
2023/01/07 06:12:13;;;;;;;46.42;17.27;;;;;;;0.39;100.00;100674.97;1762390;81;27379;-46
2023/01/07 06:14:39;;;;;;;43.35;18.30;;;;;;;0.39;100.00;100673.63;1734377;81;25547;-46
2023/01/07 06:17:05;;;;;;;50.35;18.70;;;;;;;0.39;100.00;100670.97;1726717;83;25631;-46
2023/01/07 06:19:31;;;;;;;45.48;17.07;;;;;;;0.38;100.00;100674.70;1703599;83;26372;-46
2023/01/07 06:21:58;;;;;;;48.87;17.30;;;;;;;0.36;100.00;100673.06;1718610;83;25393;-44
2023/01/07 06:24:24;;;;;;;47.43;17.52;;;;;;;0.34;100.00;100675.15;1700533;84;26510;-47
2023/01/07 06:26:51;;;;;;;50.85;17.25;;;;;;;0.34;100.00;100674.32;1700443;84;25690;-46
2023/01/07 06:29:17;;;;;;;47.05;18.85;;;;;;;0.33;100.00;100682.03;1700534;84;25611;-46
2023/01/07 06:31:43;;;;;;;63.20;19.90;;;;;;;0.30;100.00;100680.63;1700487;84;35442;-47
2023/01/07 06:34:09;;;;;;;58.90;20.25;;;;;;;0.32;100.00;100683.06;1700536;84;25604;-46
2023/01/07 06:36:35;;;;;;;54.27;19.32;;;;;;;0.32;100.00;100687.88;1700526;84;27017;-45
2023/01/07 06:39:02;;;;;;;46.85;18.15;;;;;;;0.33;100.00;100692.14;1700437;84;25603;-45
2023/01/07 06:41:28;;;;;;;49.00;19.00;;;;;;;0.34;100.00;100692.45;1700449;84;25458;-46
2023/01/07 06:43:54;;;;;;;45.20;22.58;;;;;;;0.33;100.00;100694.81;1700442;84;25655;-45
2023/01/07 06:46:21;;;;;;;51.28;22.05;;;;;;;0.35;100.00;100691.92;1700515;84;25402;-47
2023/01/07 06:48:47;;;;;;;44.40;17.48;;;;;;;0.37;100.00;100696.48;1700474;84;27381;-46
2023/01/07 06:51:13;;;;;;;43.55;21.35;;;;;;;0.40;100.00;100699.22;1700428;84;25601;-47
2023/01/07 06:53:39;;;;;;;45.43;24.00;;;;;;;0.43;100.00;100704.08;1700489;84;25406;-46
2023/01/07 06:56:06;;;;;;;48.45;17.35;;;;;;;0.44;100.00;100702.50;1700437;84;25686;-48
2023/01/07 06:58:32;;;;;;;49.70;18.48;;;;;;;0.45;100.00;100705.98;1700532;84;25462;-46
2023/01/07 07:01:07;;;;;;;45.15;18.32;;;;;;;0.46;100.00;100714.24;1700429;84;27338;-47
2023/01/07 07:03:34;;;;;;;62.20;17.70;;;;;;;0.45;100.00;100713.44;1700417;84;25475;-46
2023/01/07 07:06:00;;;;;;;48.10;18.10;;;;;;;0.46;100.00;100712.91;1700396;84;25403;-46
2023/01/07 07:08:27;;;;;;;43.40;17.15;;;;;;;0.46;100.00;100713.74;1700458;84;25674;-46
2023/01/07 07:10:54;;;;;;;64.67;18.48;;;;;;;0.46;100.00;100716.91;1700623;84;25560;-45
2023/01/07 07:13:21;;;;;;;53.52;20.85;;;;;;;0.46;100.00;100723.06;1703728;82;27309;-45
2023/01/07 07:15:48;;;;;;;57.25;38.40;;;;;;;0.47;100.00;100720.67;1735989;82;25617;-46
2023/01/07 07:18:16;;;;;;;64.75;45.67;;;;;;;0.47;100.00;100720.67;1735986;82;25657;-47
2023/01/07 07:20:46;;;;;;;72.75;58.92;;;;;;;0.48;100.00;100726.30;1735916;82;25618;-46
2023/01/07 07:23:12;;;;;;;;;;;;;;;0.48;100.00;100728.95;1738560;82;25689;-50
2023/01/07 07:25:38;;;;;;;46.63;24.85;;;;;;;0.50;100.00;100728.73;1759405;81;27400;-47
2023/01/07 07:28:04;;;;;;;50.43;20.12;;;;;;;0.52;100.00;100733.30;1759256;81;25640;-46
2023/01/07 07:30:31;;;;;;;52.17;19.37;;;;;;;0.52;100.00;100734.63;1759407;81;25467;-47
2023/01/07 07:33:04;;;;;;;49.05;18.62;;;;;;;0.55;100.00;100734.97;1759282;81;25736;-47
2023/01/07 07:35:31;;;;;;;47.95;18.35;;;;;;;0.59;100.00;100736.64;1736020;82;25446;-48
2023/01/07 07:37:57;;;;;;;44.77;16.67;;;;;;;0.63;100.00;100738.32;1759419;81;27413;-47
2023/01/07 07:40:23;;;;;;;51.13;18.32;;;;;;;0.66;100.00;100734.67;1759321;81;25458;-46
2023/01/07 07:42:49;;;;;;;47.70;19.77;;;;;;;0.67;100.00;100741.63;1735996;82;25448;-47
2023/01/07 07:45:18;;;;;;;43.83;17.67;;;;;;;0.68;100.00;100747.75;1759334;81;35149;-48
2023/01/07 07:47:45;;;;;;;41.15;17.48;;;;;;;0.69;100.00;100744.86;1759240;81;25415;-49
2023/01/07 07:50:11;;;;;;;44.10;17.75;;;;;;;0.70;100.00;100745.70;1759360;81;27329;-47
2023/01/07 07:52:39;;;;;;;43.80;16.02;;;;;;;0.71;100.00;100744.11;1759279;81;25636;-48
2023/01/07 07:55:08;;;;;;;38.60;14.43;;;;;;;0.75;100.00;100748.47;1735981;82;25606;-47
2023/01/07 07:57:35;;;;;;;43.58;16.55;;;;;;;0.76;100.00;100745.28;1756570;81;25636;-47
2023/01/07 08:00:01;;;;;;;43.70;16.12;;;;;;;0.79;100.00;100744.81;1759326;81;25380;-49
2023/01/07 08:02:27;;;;;;;38.10;15.38;;;;;;;0.81;100.00;100748.05;1759337;81;27371;-46
2023/01/07 08:04:54;;;;;;;41.80;16.80;;;;;;;0.86;100.00;100756.95;1759263;81;25407;-47
2023/01/07 08:07:20;;;;;;;45.63;19.35;;;;;;;0.87;100.00;100750.59;1735969;82;25581;-47
2023/01/07 08:09:46;;;;;;;44.77;17.23;;;;;;;0.90;100.00;100751.47;1759301;81;34774;-48
2023/01/07 08:12:13;;;;;;;36.13;15.75;;;;;;;0.92;100.00;100744.58;1731370;81;25586;-49
2023/01/07 08:14:39;;;;;;;45.58;18.57;;;;;;;0.95;100.00;100744.63;1712015;83;27772;-48
2023/01/07 08:17:05;;;;;;;44.60;17.98;;;;;;;0.97;100.00;100746.02;1693957;83;25637;-48
2023/01/07 08:19:31;;;;;;;41.55;17.10;;;;;;;1.00;100.00;100748.73;1718541;83;25622;-48
2023/01/07 08:21:57;;;;;;;45.45;17.42;;;;;;;1.02;100.00;100744.80;1700399;84;25639;-49
2023/01/07 08:24:24;;;;;;;37.60;16.67;;;;;;;1.06;100.00;100747.80;1700509;84;32409;-47
2023/01/07 08:26:54;;;;;;;43.55;17.90;;;;;;;1.09;100.00;100744.14;1700494;84;28167;-47
2023/01/07 08:29:24;;;;;;;45.38;18.23;;;;;;;1.11;100.00;100746.58;1700410;84;26069;-49
2023/01/07 08:31:51;;;;;;;43.42;17.10;;;;;;;1.13;100.00;100744.48;1700430;84;25556;-46
2023/01/07 08:34:18;;;;;;;43.30;17.27;;;;;;;1.17;100.00;100745.62;1700436;84;27866;-48
2023/01/07 08:36:44;;;;;;;39.75;16.40;;;;;;;1.18;100.00;100743.78;1674348;84;25531;-52
2023/01/07 08:39:12;;;;;;;47.90;17.57;;;;;;;1.25;100.00;100739.93;1700627;84;27573;-51
2023/01/07 08:41:38;;;;;;;41.02;17.10;;;;;;;1.32;100.00;100742.99;1700524;84;25735;-49
2023/01/07 08:44:05;;;;;;;44.23;17.25;;;;;;;1.35;100.00;100740.66;1674282;84;25659;-50
2023/01/07 08:46:32;;;;;;;38.83;16.77;;;;;;;1.40;100.00;100743.96;1700682;84;25415;-52
2023/01/07 08:49:00;;;;;;;38.53;17.00;;;;;;;1.45;100.00;100738.73;1700659;84;25445;-49
2023/01/07 08:51:26;;;;;;;43.78;18.85;;;;;;;1.51;100.00;100755.63;1700600;84;28353;-48
2023/01/07 08:53:55;;;;;;;42.78;18.25;;;;;;;1.52;100.00;100743.92;1700534;84;25487;-49
2023/01/07 08:56:22;;;;;;;44.63;16.75;;;;;;;1.54;100.00;100745.82;1700603;84;25651;-49
2023/01/07 08:58:48;;;;;;;42.53;17.87;;;;;;;1.59;100.00;100757.38;1700515;84;25642;-49
2023/01/07 09:01:14;;;;;;;44.75;18.32;;;;;;;1.64;100.00;100757.48;1700565;84;25598;-49
2023/01/07 09:03:41;;;;;;;46.37;18.30;;;;;;;1.70;100.00;100741.05;1700624;84;27376;-48
2023/01/07 09:06:08;;;;;;;50.05;18.95;;;;;;;1.79;100.00;100757.50;1700524;84;25627;-49
2023/01/07 09:08:36;;;;;;;42.65;20.88;;;;;;;1.83;100.00;100753.30;1700592;84;25458;-49
2023/01/07 09:11:03;;;;;;;43.83;20.02;;;;;;;1.85;100.00;100756.53;1700544;84;26404;-49
2023/01/07 09:13:31;;;;;;;37.48;17.60;;;;;;;1.86;100.00;100758.95;1700662;84;25454;-50
2023/01/07 09:15:59;;;;;;;46.45;20.48;;;;;;;1.89;100.00;100756.34;1682588;84;27340;-48
2023/01/07 09:18:27;;;;;;;43.00;20.45;;;;;;;1.95;100.00;100763.91;1680108;85;25818;-52
2023/01/07 09:20:55;;;;;;;50.43;39.15;;;;;;;1.96;100.00;100759.67;1680219;85;25637;-48
2023/01/07 09:23:21;;;;;;;83.80;75.20;;;;;;;2.01;100.00;100765.09;1680152;85;25668;-49
2023/01/07 09:25:47;;;;;;;94.95;85.53;;;;;;;2.07;100.00;100763.31;1680165;85;25554;-49
2023/01/07 09:28:13;;;;;;;68.50;37.17;;;;;;;2.15;100.00;100768.27;1680126;85;27426;-48
2023/01/07 09:30:40;;;;;;;39.85;18.17;;;;;;;2.21;100.00;100761.98;1680028;85;25505;-48
2023/01/07 09:33:06;;;;;;;42.62;18.52;;;;;;;2.28;100.00;100769.80;1680245;85;25475;-48
2023/01/07 09:35:32;;;;;;;45.28;27.10;;;;;;;2.39;100.00;100763.59;1680136;85;27839;-49
2023/01/07 09:37:59;;;;;;;49.75;26.10;;;;;;;2.49;100.00;100761.61;1680168;85;25668;-48
2023/01/07 09:40:37;;;;;;;49.53;19.62;;;;;;;2.56;100.00;100758.78;1680182;85;27611;-48
2023/01/07 09:43:33;;;;;;;47.20;19.20;;;;;;;2.60;100.00;100764.70;1678913;85;25564;-49
2023/01/07 09:46:04;;;;;;;41.73;18.02;;;;;;;2.68;100.00;100755.48;1680150;85;25542;-49
2023/01/07 09:48:36;;;;;;;41.60;19.55;;;;;;;2.89;100.00;100756.57;1680133;85;26449;-50
2023/01/07 09:51:40;;;;;;;48.52;20.48;;;;;;;2.92;100.00;100764.10;1680222;85;25418;-48
2023/01/07 09:54:15;;;;;;;40.92;19.20;;;;;;;3.02;100.00;100762.10;1680167;85;27668;-49
2023/01/07 09:56:43;;;;;;;46.42;17.50;;;;;;;3.18;100.00;100753.74;1678613;84;25483;-48
2023/01/07 09:59:13;;;;;;;48.07;20.67;;;;;;;3.38;100.00;100751.05;1680352;85;25603;-49
2023/01/07 10:02:37;;;;;;;51.50;21.40;;;;;;;3.55;100.00;100752.58;1678666;85;25633;-48
2023/01/07 10:05:35;;;;;;;55.10;21.87;;;;;;;3.73;100.00;100753.33;1651983;85;25511;-47
2023/01/07 10:08:15;;;;;;;54.93;21.90;;;;;;;3.85;100.00;100752.64;1679475;85;27546;-48
2023/01/07 10:10:59;;;;;;;58.05;23.98;;;;;;;3.87;100.00;100751.05;1680169;85;25626;-47
2023/01/07 10:13:45;;;;;;;57.48;23.83;;;;;;;3.86;100.00;100750.22;1680190;85;25596;-47
2023/01/07 10:16:52;;;;;;;57.98;25.85;;;;;;;3.89;100.00;100750.27;1699521;84;26249;-48
2023/01/07 10:20:16;;;;;;;47.88;21.17;;;;;;;3.90;100.00;100752.69;1704267;83;25437;-48
2023/01/07 10:23:03;;;;;;;57.55;24.75;;;;;;;4.02;100.00;100753.88;1704850;84;28021;-47
2023/01/07 10:25:36;;;;;;;73.07;49.03;;;;;;;4.09;100.00;100753.67;1704768;84;25406;-47
2023/01/07 10:28:08;;;;;;;103.20;92.75;;;;;;;4.11;100.00;100757.70;1704927;84;25565;-48
2023/01/07 10:30:40;;;;;;;104.65;94.67;;;;;;;4.10;100.00;100754.76;1704907;84;25608;-48
2023/01/07 10:33:28;;;;;;;108.55;98.45;;;;;;;4.06;100.00;100748.28;1704910;84;25638;-48
2023/01/07 10:36:00;;;;;;;105.60;95.20;;;;;;;4.06;100.00;100746.14;1702026;84;27375;-48
2023/01/07 10:38:32;;;;;;;108.12;96.57;;;;;;;4.03;100.00;100736.73;1691593;84;25417;-48
2023/01/07 10:41:18;;;;;;;108.90;98.03;;;;;;;4.06;100.00;100740.25;1704837;84;25642;-47
2023/01/07 10:44:04;;;;;;;105.15;94.80;;;;;;;4.08;100.00;100731.97;1703809;84;25640;-47
2023/01/07 10:47:11;;;;;;;98.65;87.10;;;;;;;4.05;100.00;100728.45;1703841;84;25414;-49
2023/01/07 10:50:34;;;;;;;107.70;96.05;;;;;;;4.07;100.00;100735.19;1704886;84;27358;-47
2023/01/07 10:53:50;;;;;;;105.30;94.17;;;;;;;4.03;100.00;100723.35;1735928;82;25415;-49
2023/01/07 10:56:47;;;;;;;108.40;97.25;;;;;;;4.04;100.00;100725.52;1759363;81;25468;-49
2023/01/07 10:59:19;;;;;;;107.50;96.67;;;;;;;4.06;100.00;100726.86;1757616;81;26161;-50
2023/01/07 11:01:56;;;;;;;108.65;97.50;;;;;;;4.11;100.00;100718.87;1759397;81;25636;-48
2023/01/07 11:04:25;;;;;;;67.47;46.60;;;;;;;4.21;100.00;100718.70;1736027;82;27511;-51
2023/01/07 11:07:08;;;;;;;56.85;37.25;;;;;;;4.23;100.00;100706.66;1759460;81;25409;-48
2023/01/07 11:09:41;;;;;;;61.15;35.40;;;;;;;4.23;100.00;100720.04;1759396;81;25503;-48
2023/01/07 11:12:42;;;;;;;63.98;26.73;;;;;;;4.22;100.00;100710.92;1758490;81;25625;-47
2023/01/07 11:15:32;;;;;;;54.63;23.80;;;;;;;4.23;100.00;100705.86;1669179;85;25505;-49
2023/01/07 11:18:12;;;;;;;106.67;95.70;;;;;;;4.31;100.00;100704.05;1675499;85;27249;-47
2023/01/07 11:20:57;;;;;;;57.93;34.48;;;;;;;4.36;100.00;100707.27;1675943;85;25588;-48
2023/01/07 11:23:39;;;;;;;104.60;93.72;;;;;;;4.39;100.00;100706.25;1676050;85;25673;-47
2023/01/07 11:26:16;;;;;;;110.52;98.72;;;;;;;4.39;100.00;100708.93;1675987;85;25682;-49
2023/01/07 11:28:54;;;;;;;88.52;77.82;;;;;;;4.38;100.00;100705.17;1653022;85;25606;-47
2023/01/07 11:31:32;;;;;;;105.32;94.70;;;;;;;4.38;100.00;100709.19;1675259;85;28436;-48
2023/01/07 11:33:59;;;;;;;106.83;95.22;;;;;;;4.41;100.00;100712.16;1671018;85;25620;-48
2023/01/07 11:36:40;;;;;;;104.20;93.62;;;;;;;4.48;100.00;100715.95;1675999;85;25569;-48